Tiempo atmosférico en la estación meteorológica de Barco De Avila, Ávila (1012 m.)



Fecha
DESCASC
Temp. máxima en grados centígrados (hora)
DESCASC
Temp. mínima en grados centígrados (hora)
DESCASC
Temp. media en grados centígrados
DESCASC
Racha de viento máxima en m/sg (hora)
DESCASC
Velocidad máxima media en intervalos de 10 minutos(hora)
DESCASC
Precipitaciones diarias en mm
DESCASC
Precipitaciones de 00:00 a 06:00 en mm
DESCASC
Precipitaciones de 06:00 a 12:00 en mm
DESCASC
Precipitaciones de 12:00 a 18:00 en mm
DESCASC
Precipitaciones de 18:00 a 24:00 en mm
DESCASC
21-02-2019 14.4 (14:10) -1.7 (05:10) 6.3 11.11 (13:30) 7.22 (14:20) -- -- -- -- --
20-02-2019 14.2 (15:10) -1.9 (08:40) 6.1 11.39 (15:50) 3.89 (17:30) -- -- -- -- --
19-02-2019 11.7 (15:50) 2.2 (06:00) 6.9 8.61 (17:10) 5.56 (16:50) -- -- -- -- --
18-02-2019 13.1 (15:00) 3.4 (23:50) 8.3 11.94 (10:30) 8.33 (10:00) -- -- -- -- --
17-02-2019 14.1 (13:50) -0.8 (-00:0) 6.7 10.28 (14:40) 7.5 (15:20) -- -- -- -- --
16-02-2019 18.7 (15:00) -1.6 (-00:0) 8.6 8.33 (11:50) 4.72 (11:50) -- -- -- -- --
15-02-2019 17.4 (15:10) -2.3 (-00:0) 7.5 6.67 (16:50) 4.17 (06:40) -- -- -- -- --
14-02-2019 18.4 (14:30) -1.8 (-00:0) 8.3 7.78 (14:10) 4.72 (06:00) -- -- -- -- --
13-02-2019 15.3 (16:50) -3.2 (-00:0) 6.1 5.56 (17:10) 3.33 (23:00) -- -- -- -- --
12-02-2019 12.5 (16:50) -4 (-00:0) 4.3 5.83 (13:50) 3.61 (13:50) -- -- -- -- --
11-02-2019 12.7 (14:50) 0 (00:00) 6.3 6.94 (16:50) 4.17 (16:40) -- -- -- -- --
10-02-2019 11.2 (14:40) -0.1 (00:00) 5.5 13.61 (14:30) 7.22 (12:30) -- -- -- -- --
09-02-2019 12 (14:00) -3.5 (-00:0) 4.3 11.39 (20:20) 7.78 (14:30) -- -- -- -- --
08-02-2019 13.3 (15:10) -4.3 (-00:0) 4.5 12.78 (17:10) 8.06 (16:40) -- -- -- -- --
07-02-2019 13 (15:10) -3.6 (-00:0) 4.7 6.11 (15:50) 3.33 (15:50) -- -- -- -- --
06-02-2019 15.5 (15:30) -1 (-00:0) 7.3 8.61 (14:10) 5.56 (13:50) -- -- -- -- --
05-02-2019 14.6 (16:00) -2.3 (-00:0) 6.2 5.28 (14:10) 3.33 (08:40) -- -- -- -- --
04-02-2019 13.2 (15:10) -6.9 (-00:0) 3.1 6.11 (04:50) 4.17 (04:50) -- -- -- -- --
03-02-2019 5.3 (16:30) -6.6 (-00:0) -0.6 6.39 (15:00) 3.89 (15:00) -- -- -- -- --
02-02-2019 4 (15:00) -1.3 (-00:0) 1.4 16.39 (00:50) 7.5 (00:10) -- -- -- -- --
01-02-2019 8.3 (00:30) 2.1 (00:00) 5.2 16.94 (16:30) 9.72 (13:00) -- -- -- -- --
31-01-2019 10.4 (13:00) 6.6 (00:00) 8.5 16.67 (16:40) 10.56 (16:40) -- -- -- -- --
30-01-2019 6.6 (23:50) -0.2 (00:00) 3.2 10 (19:30) 6.11 (18:40) -- -- -- -- --
29-01-2019 8.8 (14:00) -0.7 (-00:0) 4.1 13.06 (14:10) 5.56 (11:20) -- -- -- -- --
28-01-2019 9.5 (15:10) -0.3 (00:00) 4.6 13.33 (17:10) 6.39 (18:20) -- -- -- -- --
27-01-2019 7.8 (15:20) -3.8 (-00:0) 2 8.89 (17:20) 5 (16:30) -- -- -- -- --
26-01-2019 15.8 (16:30) -3.8 (-00:0) 6 7.22 (03:30) 4.17 (03:30) -- -- -- -- --
25-01-2019 14.7 (16:00) -0.9 (-00:0) 6.9 5.56 (17:50) 3.61 (23:59) -- -- -- -- --
24-01-2019 12.5 (14:40) 5.9 (00:00) 9.2 11.39 (00:30) 6.11 (00:30) -- -- -- -- --

Gráficas

Temp. máximas Temp. mínimas Temp. medias Precipitaciones Rachas de viento máximas Velocidades máximas media en intervalos de 10 minutos

Datos horarios

Fecha y hora oficial Temperatura (ºC) Velocidad del viento (km/h) Dirección del viento Racha (km/h) Dirección de racha Precipitación (mm) Presión (hPa) Tendencia (hPa) Humedad (%)
2019-02-22 23:00:00 1.7 12 Oeste 16 Sudoeste 0 -- -- 57
2019-02-22 22:00:00 3.1 5 Oeste 11 Sudoeste 0 -- -- 52
2019-02-22 21:00:00 4.9 6 Sudoeste 10 Sudoeste 0 -- -- 50
2019-02-22 20:00:00 7.4 3 Este 9 Sudoeste 0 -- -- 44
2019-02-22 19:00:00 13.3 6 Oeste 15 Sudoeste 0 -- -- 30
2019-02-22 18:00:00 15.7 13 Sudoeste 21 Sudoeste 0 -- -- 27
2019-02-22 17:00:00 16.5 13 Sur 24 Sur 0 -- -- 22
2019-02-22 16:00:00 16.5 17 Sur 30 Sur 0 -- -- 21
2019-02-22 15:00:00 17 22 Sur 32 Sur 0 -- -- 21
2019-02-22 14:00:00 17.1 22 Sur 34 Sur 0 -- -- 20
2019-02-22 13:00:00 17.1 16 Sur 32 Sur 0 -- -- 22
2019-02-22 12:00:00 15.1 4 Noroeste 8 Sudoeste 0 -- -- 26
2019-02-22 11:00:00 11.3 5 Oeste 12 Sudoeste 0 -- -- 38
2019-02-22 10:00:00 5.4 8 Sudoeste 18 Sudoeste 0 -- -- 50
2019-02-22 09:00:00 0.7 13 Sudoeste 18 Sudoeste 0 -- -- 62
2019-02-22 08:00:00 -0.8 13 Oeste 20 Sudoeste 0 -- -- 68
2019-02-22 07:00:00 0 13 Oeste 19 Sudoeste 0 -- -- 65
2019-02-22 06:00:00 -0.7 10 Oeste 17 Oeste 0 -- -- 70
2019-02-22 05:00:00 -0.6 9 Sudoeste 16 Sudoeste 0 -- -- 71
2019-02-22 04:00:00 -0.4 8 Sudoeste 21 Sudoeste 0 -- -- 73
2019-02-22 03:00:00 0.2 11 Sudoeste 18 Sudoeste 0 -- -- 73
2019-02-22 02:00:00 1.2 12 Sudoeste 18 Sudoeste 0 -- -- 72
2019-02-22 01:00:00 1.4 12 Sudoeste 18 Sudoeste 0 -- -- 72
2019-02-22 00:00:00 2 9 Oeste 15 Oeste 0 -- -- 70
2019-02-21 23:00:00 2.9 9 Oeste 13 Oeste 0 -- -- 67
2019-02-21 22:00:00 3.7 5 Oeste 13 Sudoeste 0 -- -- 64
2019-02-21 21:00:00 5.7 6 Sudoeste 13 Oeste 0 -- -- 58
2019-02-21 20:00:00 7.5 8 Sudoeste 14 Sur 0 -- -- 53
2019-02-21 19:00:00 10.3 9 Sur 21 Sur 0 -- -- 46
2019-02-21 18:00:00 12.8 16 Sur 32 Sur 0 -- -- 39
2019-02-21 17:00:00 13.8 21 Sur 37 Sur 0 -- -- 38
2019-02-21 16:00:00 13.9 26 Sur 37 Sur 0 -- -- 37
2019-02-21 15:00:00 14 26 Sur 39 Sur 0 -- -- 38
2019-02-21 14:00:00 14.3 21 Sudoeste 40 Sudoeste 0 -- -- 39
2019-02-21 13:00:00 13.9 20 Sudoeste 33 Sur 0 -- -- 39
2019-02-21 12:00:00 13.4 17 Sur 30 Sudoeste 0 -- -- 45
2019-02-21 11:00:00 10.1 4 Sudeste 12 Sudoeste 0 -- -- 59
2019-02-21 10:00:00 4 7 Oeste 17 Oeste 0 -- -- 76
2019-02-21 09:00:00 -0.2 10 Sudoeste 18 Sudoeste 0 -- -- 85
2019-02-21 08:00:00 -1.4 12 Sudoeste 19 Oeste 0 -- -- 86
2019-02-21 07:00:00 -0.9 12 Oeste 18 Sudoeste 0 -- -- 85
2019-02-21 06:00:00 -1.2 9 Sudoeste 17 Sudoeste 0 -- -- 85
2019-02-21 05:00:00 -1.6 7 Sudoeste 14 Sudoeste 0 -- -- 85
2019-02-21 04:00:00 -0.8 11 Sudoeste 18 Sudoeste 0 -- -- 85
2019-02-21 03:00:00 -0.7 14 Sudoeste 22 Sudoeste 0 -- -- 82
2019-02-21 02:00:00 0 15 Sudoeste 20 Sudoeste 0 -- -- 81
2019-02-21 01:00:00 -0.1 11 Sudoeste 15 Sudoeste 0 -- -- 82
2019-02-21 00:00:00 0.3 9 Sudoeste 13 Sudoeste 0 -- -- 81
2019-02-20 23:00:00 1.8 9 Sudoeste 14 Sudoeste 0 -- -- 77
2019-02-20 22:00:00 2.4 6 Sudoeste 9 Oeste 0 -- -- 76
2019-02-20 21:00:00 4.3 6 Este 10 Nordeste 0 -- -- 70
2019-02-20 20:00:00 7.4 2 Oeste 8 Oeste 0 -- -- 62
2019-02-20 19:00:00 9.6 7 Sudoeste 21 Oeste 0 -- -- 54
2019-02-20 18:00:00 12.1 13 Sudoeste 22 Sudoeste 0 -- -- 46
2019-02-20 17:00:00 13.4 13 Sudoeste 23 Sudoeste 0 -- -- 41
2019-02-20 16:00:00 13.8 13 Sudoeste 41 Oeste 0 -- -- 41
2019-02-20 15:00:00 13.8 12 Sudoeste 21 Oeste 0 -- -- 46
2019-02-20 14:00:00 12.7 7 Sudoeste 18 Sudoeste 0 -- -- 45
2019-02-20 13:00:00 10.2 12 Sudoeste 21 Sudoeste 0 -- -- 56
2019-02-20 12:00:00 11 4 Oeste 9 Oeste 0 -- -- 63
2019-02-20 11:00:00 7.3 0 Calma 9 Sudoeste 0 -- -- 74
2019-02-20 10:00:00 3 6 Sudoeste 10 Oeste 0 -- -- 89
2019-02-20 09:00:00 -1.4 6 Oeste 10 Oeste 0 -- -- 94
2019-02-20 08:00:00 -1.8 4 Sudoeste 7 Sudoeste 0 -- -- 93
2019-02-20 07:00:00 -1.5 0 Calma 9 Oeste 0 -- -- 91
2019-02-20 06:00:00 -1 4 Oeste 6 Oeste 0 -- -- 92
2019-02-20 05:00:00 0.3 0 Calma 5 Este 0 -- -- 94
2019-02-20 04:00:00 0.8 0 Calma 6 Sur 0 -- -- 91
2019-02-20 03:00:00 2.3 0 Calma 8 Sur 0 -- -- 87
2019-02-20 02:00:00 2.9 6 Sudoeste 15 Sudoeste 0 -- -- 88
2019-02-20 01:00:00 3.6 6 Sur 12 Sur 0 -- -- 85
2019-02-20 00:00:00 5 3 Oeste 14 Sur 0.2 -- -- 85
2019-02-19 23:00:00 5 4 Sur 15 Sudoeste 0 -- -- 86
2019-02-19 22:00:00 5.1 3 Sur 11 Sur 0 -- -- 80
2019-02-19 21:00:00 6.1 0 Calma 11 Oeste 0 -- -- 77
2019-02-19 20:00:00 7.1 5 Oeste 19 Sudoeste 0 -- -- 76
2019-02-19 19:00:00 8.2 15 Oeste 22 Sudoeste 0 -- -- 70
2019-02-19 18:00:00 10.3 13 Sudoeste 31 Oeste 0 -- -- 61
2019-02-19 17:00:00 9 18 Oeste 30 Sudoeste 0 -- -- 70
2019-02-19 16:00:00 11.3 14 Sudoeste 24 Oeste 0 -- -- 53
2019-02-19 15:00:00 10.9 5 Norte 13 Oeste 0 -- -- 58
2019-02-19 14:00:00 10.9 9 Sudoeste 17 Sudoeste 0 -- -- 53
2019-02-19 13:00:00 11.4 9 Oeste 16 Oeste 0 -- -- 52
2019-02-19 12:00:00 8.5 5 Nordeste 10 Nordeste 0 -- -- 63
2019-02-19 11:00:00 7.5 3 Nordeste 6 Norte 0 -- -- 63
2019-02-19 10:00:00 5.8 4 Oeste 13 Sudoeste 0 -- -- 68
2019-02-19 09:00:00 3.1 3 Sudoeste 11 Sudoeste 0 -- -- 75
2019-02-19 08:00:00 2.9 6 Sudoeste 12 Sudoeste 0 -- -- 78
2019-02-19 07:00:00 2.9 2 Este 7 Este 0 -- -- 81
2019-02-19 06:00:00 2.2 5 Este 8 Este 0 -- -- 83
2019-02-19 05:00:00 3.2 4 Oeste 7 Sudoeste 0 -- -- 78
2019-02-19 04:00:00 4 6 Sudoeste 10 Oeste 0 -- -- 77
2019-02-19 03:00:00 4.3 6 Sudoeste 19 Sudoeste 0 -- -- 73
2019-02-19 02:00:00 4.6 12 Sudoeste 19 Sudoeste 0 -- -- 68
2019-02-19 01:00:00 4.4 7 Sur 19 Sur 0 -- -- 68
2019-02-19 00:00:00 3.5 5 Sudoeste 8 Sudoeste 0 -- -- 76
2019-02-18 23:00:00 4.2 4 Este 10 Oeste 0 -- -- 77
2019-02-18 22:00:00 4.6 7 Oeste 9 Sudoeste 0 -- -- 74
2019-02-18 21:00:00 6.6 4 Norte 14 Nordeste 0 -- -- 69
2019-02-18 20:00:00 7.9 7 Norte 15 Norte 0 -- -- 67
2019-02-18 19:00:00 10.2 7 Norte 13 Norte 0 -- -- 62
2019-02-18 18:00:00 11.9 7 Sur 19 Sudeste 0 -- -- 39
2019-02-18 17:00:00 12 14 Sur 24 Sur 0 -- -- 39
2019-02-18 16:00:00 12.4 17 Sur 25 Sur 0 -- -- 38
2019-02-18 15:00:00 13.1 14 Sur 25 Sudeste 0 -- -- 41
2019-02-18 14:00:00 11.6 18 Sur 30 Sur 0 -- -- 45
2019-02-18 13:00:00 10.8 23 Sur 35 Sudeste 0 -- -- 47
2019-02-18 12:00:00 10 20 Sur 32 Sur 0 -- -- 50
2019-02-18 11:00:00 9.4 22 Sur 43 Sur 0 -- -- 54
2019-02-18 10:00:00 8.7 30 Sur 41 Sur 0 -- -- 57
2019-02-18 09:00:00 8.6 24 Sur 36 Sur 0 -- -- 60
2019-02-18 08:00:00 8.5 23 Sur 34 Sudeste 0 -- -- 61
2019-02-18 07:00:00 8.5 22 Sur 32 Sur 0 -- -- 63
2019-02-18 06:00:00 8.4 13 Sur 23 Sur 0 -- -- 59
2019-02-18 05:00:00 8.2 17 Sur 27 Sur 0 -- -- 60
2019-02-18 04:00:00 8.1 17 Sur 29 Sur 0 -- -- 60
2019-02-18 03:00:00 8.3 21 Sur 36 Sur 0 -- -- 56
2019-02-18 02:00:00 8.6 23 Sur 38 Sur 0 -- -- 50
2019-02-18 01:00:00 8.5 20 Sur 31 Sur 0 -- -- 54
2019-02-18 00:00:00 3.5 3 Noroeste 8 Sur 0 -- -- 72
2019-02-17 23:00:00 3.5 3 Oeste 8 Sudoeste 0 -- -- 68
2019-02-17 22:00:00 3.8 4 Sudoeste 12 Sur 0 -- -- 65
2019-02-17 21:00:00 4.6 8 Sudoeste 16 Sudoeste 0 -- -- 61
2019-02-17 20:00:00 8.1 12 Sudoeste 28 Sur 0 -- -- 51
2019-02-17 19:00:00 8.6 12 Sur 27 Sur 0 -- -- 47
2019-02-17 18:00:00 10.8 19 Sur 33 Sur 0 -- -- 39
2019-02-17 17:00:00 12.2 23 Sur 35 Sur 0 -- -- 34
2019-02-17 16:00:00 13.2 21 Sur 37 Sur 0 -- -- 31
2019-02-17 15:00:00 13.7 24 Sur 37 Sur 0 -- -- 30
2019-02-17 14:00:00 13.8 22 Sur 32 Sur 0 -- -- 33
2019-02-17 13:00:00 12.8 19 Oeste 29 Oeste 0 -- -- 36
2019-02-17 12:00:00 13.2 7 Sudoeste 15 Sudoeste 0 -- -- 38
2019-02-17 11:00:00 9.3 10 Sudoeste 19 Sudoeste 0 -- -- 45
2019-02-17 10:00:00 4.8 12 Sudoeste 20 Oeste 0 -- -- 58
2019-02-17 09:00:00 0.2 12 Sudoeste 21 Oeste 0 -- -- 71
2019-02-17 08:00:00 1 10 Sudoeste 22 Sur 0 -- -- 67
2019-02-17 07:00:00 1.2 14 Sudoeste 22 Sudoeste 0 -- -- 66
2019-02-17 06:00:00 0.9 11 Oeste 19 Oeste 0 -- -- 67
2019-02-17 05:00:00 -0.4 6 Sudoeste 22 Oeste 0 -- -- 71
2019-02-17 04:00:00 1.2 12 Sudoeste 21 Sudoeste 0 -- -- 67
2019-02-17 03:00:00 1.5 13 Oeste 27 Oeste 0 -- -- 67
2019-02-17 02:00:00 2.7 12 Oeste 23 Sudoeste 0 -- -- 63
2019-02-17 01:00:00 2.6 10 Oeste 23 Sudoeste 0 -- -- 65
2019-02-17 00:00:00 2.4 12 Sudoeste 24 Oeste 0 -- -- 68
2019-02-16 23:00:00 4.1 9 Oeste 19 Sudoeste 0 -- -- 63
2019-02-16 22:00:00 6.7 9 Oeste 17 Oeste 0 -- -- 51
2019-02-16 21:00:00 8.1 10 Sudoeste 22 Sur 0 -- -- 46
2019-02-16 20:00:00 9.3 8 Oeste 13 Oeste 0 -- -- 45
2019-02-16 19:00:00 12.7 10 Oeste 18 Norte 0 -- -- 45
2019-02-16 18:00:00 15.9 10 Norte 21 Noroeste 0 -- -- 35
2019-02-16 17:00:00 17.2 8 Norte 19 Noroeste 0 -- -- 33
2019-02-16 16:00:00 18.3 5 Norte 26 Sudeste 0 -- -- 28
2019-02-16 15:00:00 18.7 14 Este 22 Sudeste 0 -- -- 28
2019-02-16 14:00:00 18.2 6 Sur 16 Este 0 -- -- 27
2019-02-16 13:00:00 16.8 5 Nordeste 22 Sudeste 0 -- -- 29
2019-02-16 12:00:00 15 14 Sur 30 Sudeste 0 -- -- 37
2019-02-16 11:00:00 11.6 14 Sur 26 Sur 0 -- -- 49
2019-02-16 10:00:00 7.1 13 Sur 24 Sur 0 -- -- 62
2019-02-16 09:00:00 1.4 9 Sur 25 Sudoeste 0 -- -- 81
2019-02-16 08:00:00 -1.6 3 Sudoeste 15 Sudoeste 0 -- -- 81
2019-02-16 07:00:00 1 8 Oeste 17 Sudoeste 0 -- -- 80
2019-02-16 06:00:00 -0.7 4 Sudoeste 15 Oeste 0 -- -- 76
2019-02-16 05:00:00 0.6 6 Sudoeste 19 Sudoeste 0 -- -- 74
2019-02-16 04:00:00 0.9 8 Sudoeste 15 Sudoeste 0 -- -- 72
2019-02-16 03:00:00 1.2 3 Sudoeste 18 Oeste 0 -- -- 69
2019-02-16 02:00:00 2.6 10 Oeste 20 Sudoeste 0 -- -- 67
2019-02-16 01:00:00 2.3 13 Sudoeste 19 Sudoeste 0 -- -- 70
2019-02-16 00:00:00 2.7 11 Sudoeste 22 Sudoeste 0 -- -- 68
2019-02-15 23:00:00 3.5 13 Sudoeste 18 Sudoeste 0 -- -- 67
2019-02-15 22:00:00 4.5 5 Sudoeste 17 Sur 0 -- -- 64
2019-02-15 21:00:00 6.1 10 Oeste 14 Sudoeste 0 -- -- 60
2019-02-15 20:00:00 9 2 Sudeste 12 Norte 0 -- -- 52
2019-02-15 19:00:00 13.1 5 Nordeste 18 Norte 0 -- -- 42
2019-02-15 18:00:00 15.7 11 Norte 24 Norte 0 -- -- 35
2019-02-15 17:00:00 16.9 12 Norte 24 Noroeste 0 -- -- 34
2019-02-15 16:00:00 17.2 10 Norte 22 Norte 0 -- -- 33
2019-02-15 15:00:00 17.2 9 Norte 23 Norte 0 -- -- 26
2019-02-15 14:00:00 16.1 12 Norte 19 Norte 0 -- -- 24
2019-02-15 13:00:00 14.6 5 Nordeste 9 Norte 0 -- -- 28
2019-02-15 12:00:00 12 3 Nordeste 6 Este 0 -- -- 32
2019-02-15 11:00:00 7.9 3 Sudeste 6 Este 0 -- -- 48
2019-02-15 10:00:00 2.9 4 Sudoeste 16 Oeste 0 -- -- 58
2019-02-15 09:00:00 -1.3 8 Sudoeste 18 Sudoeste 0 -- -- 69
2019-02-15 08:00:00 -2 12 Sudoeste 21 Oeste 0 -- -- 74
2019-02-15 07:00:00 -1.8 13 Sudoeste 22 Sudoeste 0 -- -- 74
2019-02-15 06:00:00 -1.5 11 Sudoeste 18 Sudoeste 0 -- -- 71
2019-02-15 05:00:00 -0.6 12 Sudoeste 22 Sudoeste 0 -- -- 70
2019-02-15 04:00:00 -0.4 11 Sudoeste 18 Sudoeste 0 -- -- 69
2019-02-15 03:00:00 0.1 10 Sudoeste 18 Sudoeste 0 -- -- 66
2019-02-15 02:00:00 1.4 12 Sudoeste 21 Sudoeste 0 -- -- 61
2019-02-15 01:00:00 2.9 13 Sudoeste 19 Sudoeste 0 -- -- 56
2019-02-15 00:00:00 4.4 9 Sudoeste 17 Sur 0 -- -- 51
2019-02-14 23:00:00 3.5 8 Sudoeste 17 Oeste 0 -- -- 54
2019-02-14 22:00:00 4.3 9 Sudoeste 14 Sudoeste 0 -- -- 51
2019-02-14 21:00:00 6.6 6 Sudoeste 14 Sudoeste 0 -- -- 46
2019-02-14 20:00:00 9.7 8 Sudoeste 14 Sudoeste 0 -- -- 37
2019-02-14 19:00:00 11.7 10 Sur 20 Sudoeste 0 -- -- 33
2019-02-14 18:00:00 15.6 11 Sudoeste 19 Sudoeste 0 -- -- 28
2019-02-14 17:00:00 17.3 10 Sur 18 Sur 0 -- -- 27
2019-02-14 16:00:00 17.4 10 Nordeste 27 Oeste 0 -- -- 28
2019-02-14 15:00:00 18.3 13 Sudoeste 28 Sur 0 -- -- 24
2019-02-14 14:00:00 18.1 17 Sur 26 Sur 0 -- -- 22
2019-02-14 13:00:00 16.9 3 Noroeste 12 Noroeste 0 -- -- 27
2019-02-14 12:00:00 14.4 5 Oeste 13 Oeste 0 -- -- 28
2019-02-14 11:00:00 10.7 7 Oeste 15 Oeste 0 -- -- 40
2019-02-14 10:00:00 4.6 8 Oeste 16 Oeste 0 -- -- 60
2019-02-14 09:00:00 -0.6 9 Sudoeste 18 Sudoeste 0 -- -- 77
2019-02-14 08:00:00 0.1 12 Sudoeste 23 Oeste 0 -- -- 73
2019-02-14 07:00:00 0.5 15 Oeste 24 Sudoeste 0 -- -- 73
2019-02-14 06:00:00 1.6 17 Sudoeste 25 Sudoeste 0 -- -- 70
2019-02-14 05:00:00 -1.8 3 Sur 18 Sudoeste 0 -- -- 79
2019-02-14 04:00:00 1.9 9 Oeste 18 Oeste 0 -- -- 70
2019-02-14 03:00:00 1.3 11 Sudoeste 22 Sudoeste 0 -- -- 76
2019-02-14 02:00:00 1.4 9 Oeste 17 Sudoeste 0 -- -- 76
2019-02-14 01:00:00 1.2 9 Sudoeste 18 Sudoeste 0 -- -- 77
2019-02-14 00:00:00 1.9 10 Sudoeste 19 Sudoeste 0 -- -- 76
2019-02-13 23:00:00 2.4 12 Oeste 16 Sudoeste 0 -- -- 75
2019-02-13 22:00:00 3.4 5 Sudoeste 14 Sudoeste 0 -- -- 70
2019-02-13 21:00:00 5 7 Sudoeste 11 Sudoeste 0 -- -- 64
2019-02-13 20:00:00 8.3 8 Sudoeste 10 Sudoeste 0 -- -- 56
2019-02-13 19:00:00 11.9 4 Norte 13 Norte 0 -- -- 45
2019-02-13 18:00:00 14.3 7 Norte 20 Norte 0 -- -- 38
2019-02-13 17:00:00 15.2 7 Norte 18 Norte 0 -- -- 33
2019-02-13 16:00:00 15 9 Norte 15 Norte 0 -- -- 31
2019-02-13 15:00:00 14.5 6 Norte 16 Norte 0 -- -- 31
2019-02-13 14:00:00 13.7 7 Nordeste 18 Norte 0 -- -- 33
2019-02-13 13:00:00 12.3 7 Norte 14 Norte 0 -- -- 39
2019-02-13 12:00:00 10.3 5 Nordeste 8 Nordeste 0 -- -- 39
2019-02-13 11:00:00 6.2 5 Sudoeste 11 Sudoeste 0 -- -- 47
2019-02-13 10:00:00 1 8 Sudoeste 13 Sudoeste 0 -- -- 68
2019-02-13 09:00:00 -2.6 4 Sudoeste 14 Oeste 0 -- -- 81
2019-02-13 08:00:00 -3.1 8 Sudoeste 15 Sudoeste 0 -- -- 81
2019-02-13 07:00:00 -2 8 Sudoeste 18 Sudoeste 0 -- -- 76
2019-02-13 06:00:00 -2.3 8 Sudoeste 15 Sudoeste 0 -- -- 79
2019-02-13 05:00:00 -2.2 11 Sudoeste 14 Sudoeste 0 -- -- 80
2019-02-13 04:00:00 -2.1 10 Sudoeste 14 Sudoeste 0 -- -- 81
2019-02-13 03:00:00 -1.6 7 Sudoeste 15 Sudoeste 0 -- -- 82
2019-02-13 02:00:00 -1.6 7 Sudoeste 13 Sudoeste 0 -- -- 82
2019-02-13 01:00:00 -0.2 6 Sudoeste 15 Sudoeste 0 -- -- 75
2019-02-13 00:00:00 0.3 11 Sudoeste 15 Sudoeste 0 -- -- 74
2019-02-12 23:00:00 1.5 10 Sudoeste 17 Sudoeste 0 -- -- 70
2019-02-12 22:00:00 1.9 9 Sudoeste 13 Sudoeste 0 -- -- 69
2019-02-12 21:00:00 2.9 6 Oeste 9 Sudoeste 0 -- -- 66
2019-02-12 20:00:00 5.5 6 Sudoeste 11 Norte 0 -- -- 56
2019-02-12 19:00:00 9.3 6 Norte 13 Norte 0 -- -- 43
2019-02-12 18:00:00 12 6 Norte 20 Norte 0 -- -- 37
2019-02-12 17:00:00 12.4 9 Norte 21 Norte 0 -- -- 36
2019-02-12 16:00:00 12.3 11 Norte 20 Norte 0 -- -- 40
2019-02-12 15:00:00 11.8 9 Norte 17 Norte 0 -- -- 46
2019-02-12 14:00:00 10.8 11 Norte 21 Norte 0 -- -- 44
2019-02-12 13:00:00 9.3 10 Norte 20 Norte 0 -- -- 42
2019-02-12 12:00:00 7.4 8 Nordeste 16 Nordeste 0 -- -- 50
2019-02-12 11:00:00 5.4 0 Calma 13 Oeste 0 -- -- 57
2019-02-12 10:00:00 1.1 9 Sudoeste 17 Sudoeste 0 -- -- 71
2019-02-12 09:00:00 -3.4 7 Sudoeste 13 Sudoeste 0 -- -- 85
2019-02-12 08:00:00 -3.3 9 Sudoeste 15 Sudoeste 0 -- -- 83
2019-02-12 07:00:00 -3.8 9 Sudoeste 11 Sudoeste 0 -- -- 85
2019-02-12 06:00:00 -3.5 3 Sudoeste 13 Sudoeste 0 -- -- 81
2019-02-12 05:00:00 -2.8 5 Oeste 10 Sudoeste 0 -- -- 83
2019-02-12 04:00:00 -2.6 4 Oeste 9 Oeste 0 -- -- 81
2019-02-12 03:00:00 -2 5 Sudoeste 10 Oeste 0 -- -- 79
2019-02-12 02:00:00 -1.9 3 Sudoeste 13 Oeste 0 -- -- 78
2019-02-12 01:00:00 -0.4 9 Sudoeste 14 Sudoeste 0 -- -- 74
2019-02-12 00:00:00 0 6 Sudoeste 12 Oeste 0 -- -- 73
2019-02-11 23:00:00 1.2 3 Sur 15 Sudoeste 0 -- -- 67
2019-02-11 22:00:00 2.3 9 Sudoeste 13 Sudoeste 0 -- -- 64
2019-02-11 21:00:00 3.6 2 Oeste 10 Noroeste 0 -- -- 60
2019-02-11 20:00:00 7 8 Norte 20 Noroeste 0 -- -- 49
2019-02-11 19:00:00 8.5 9 Noroeste 19 Norte 0 -- -- 40
2019-02-11 18:00:00 11.2 12 Norte 23 Norte 0 -- -- 33
2019-02-11 17:00:00 12 14 Norte 25 Noroeste 0 -- -- 36
2019-02-11 16:00:00 12.5 11 Noroeste 24 Norte 0 -- -- 43
2019-02-11 15:00:00 12.4 13 Noroeste 23 Noroeste 0 -- -- 40
2019-02-11 14:00:00 11.9 10 Norte 18 Norte 0 -- -- 37
2019-02-11 13:00:00 10.4 5 Nordeste 9 Norte 0 -- -- 55
2019-02-11 12:00:00 8.2 2 Noroeste 9 Sudoeste 0 -- -- 64
2019-02-11 11:00:00 5.5 6 Sudoeste 9 Sudoeste 0 -- -- 79
2019-02-11 10:00:00 2.4 6 Sudoeste 9 Sudoeste 0 -- -- 96
2019-02-11 09:00:00 0.5 0 Calma 8 Sudoeste 0 -- -- 95
2019-02-11 08:00:00 1.2 4 Norte 8 Sudoeste 0 -- -- 94
2019-02-11 07:00:00 1.9 3 Oeste 6 Norte 0 -- -- 93
2019-02-11 06:00:00 3.3 0 Calma 9 Nordeste 0 -- -- 92
2019-02-11 05:00:00 3.3 6 Nordeste 10 Nordeste 0 -- -- 95
2019-02-11 04:00:00 4.2 2 Noroeste 6 Noroeste 0 -- -- 91
2019-02-11 03:00:00 5.1 0 Calma 12 Norte 0 -- -- 91
2019-02-11 02:00:00 5.7 5 Nordeste 18 Norte 0 -- -- 90
2019-02-11 01:00:00 5.8 5 Norte 19 Norte 0 -- -- 91
2019-02-11 00:00:00 6.3 8 Nordeste 22 Norte 0 -- -- 92
2019-02-10 23:00:00 6.7 6 Nordeste 14 Norte 0 -- -- 91
2019-02-10 22:00:00 8.1 10 Norte 22 Noroeste 0 -- -- 82
2019-02-10 21:00:00 8 4 Noroeste 14 Oeste 0 -- -- 85
2019-02-10 20:00:00 8.5 3 Sur 17 Sudoeste 0 -- -- 86
2019-02-10 19:00:00 8.7 12 Sudoeste 22 Sudoeste 0 -- -- 85
2019-02-10 18:00:00 9.4 13 Oeste 24 Oeste 0 -- -- 82
2019-02-10 17:00:00 10.3 15 Oeste 31 Sudoeste 0 -- -- 77
2019-02-10 16:00:00 10.8 15 Sudoeste 35 Sudoeste 0 -- -- 75
2019-02-10 15:00:00 11.2 22 Sudoeste 49 Sudoeste 0 -- -- 71
2019-02-10 14:00:00 10.3 18 Oeste 31 Oeste 0 -- -- 72
2019-02-10 13:00:00 9.2 17 Sudoeste 44 Oeste 0 -- -- 76
2019-02-10 12:00:00 8.7 10 Sur 35 Sudoeste 0 -- -- 74
2019-02-10 11:00:00 8.6 7 Oeste 38 Oeste 0 -- -- 73
2019-02-10 10:00:00 7.5 16 Oeste 40 Sudoeste 0 -- -- 80
2019-02-10 09:00:00 6.5 7 Oeste 37 Oeste 0 -- -- 80
2019-02-10 08:00:00 5.7 6 Nordeste 23 Sudeste 0 -- -- 81
2019-02-10 07:00:00 5.5 12 Sudoeste 23 Sudoeste 0 -- -- 85
2019-02-10 06:00:00 4.6 4 Nordeste 27 Sudoeste 0 -- -- 81
2019-02-10 05:00:00 3.7 3 Sudeste 14 Este 0 -- -- 86
2019-02-10 04:00:00 1.6 6 Nordeste 15 Sudoeste 0 -- -- 89
2019-02-10 03:00:00 0.1 4 Noroeste 10 Sudoeste 0 -- -- 90
2019-02-10 02:00:00 0.3 4 Nordeste 7 Nordeste 0 -- -- 90
2019-02-10 01:00:00 1.4 2 Sur 11 Nordeste 0 -- -- 87
2019-02-10 00:00:00 3 7 Norte 13 Norte 0 -- -- 86
2019-02-09 23:00:00 4.8 3 Nordeste 15 Nordeste 0 -- -- 79
2019-02-09 22:00:00 4.9 8 Norte 18 Norte 0 -- -- 82
2019-02-09 21:00:00 5.2 10 Noroeste 41 Sudoeste 0 -- -- 84
2019-02-09 20:00:00 5.4 18 Oeste 33 Oeste 0 -- -- 86
2019-02-09 19:00:00 6.3 23 Oeste 37 Oeste 0 -- -- 81
2019-02-09 18:00:00 7.8 23 Oeste 38 Oeste 0 -- -- 70
2019-02-09 17:00:00 9.3 25 Oeste 38 Oeste 0 -- -- 62
2019-02-09 16:00:00 10.1 25 Oeste 38 Oeste 0 -- -- 58
2019-02-09 15:00:00 11.1 27 Oeste 41 Sudoeste 0 -- -- 54
2019-02-09 14:00:00 12 18 Oeste 30 Oeste 0 -- -- 49
2019-02-09 13:00:00 11.2 14 Oeste 31 Oeste 0 -- -- 51
2019-02-09 12:00:00 8.1 6 Este 9 Sudoeste 0 -- -- 59
2019-02-09 11:00:00 4.5 6 Sur 9 Sudoeste 0 -- -- 68
2019-02-09 10:00:00 -0.6 6 Sudoeste 9 Sudoeste 0 -- -- 87
2019-02-09 09:00:00 -3.5 4 Sudoeste 11 Oeste 0 -- -- 89
2019-02-09 08:00:00 -2.7 10 Sudoeste 15 Sudoeste 0 -- -- 89
2019-02-09 07:00:00 -3.2 8 Sudoeste 11 Sudoeste 0 -- -- 91
2019-02-09 06:00:00 -2.6 7 Sudoeste 10 Sudoeste 0 -- -- 91
2019-02-09 05:00:00 -2.4 3 Sudoeste 9 Oeste 0 -- -- 88
2019-02-09 04:00:00 -1.9 6 Sudoeste 10 Sudoeste 0 -- -- 90
2019-02-09 03:00:00 -1.2 2 Sudoeste 8 Oeste 0 -- -- 86
2019-02-09 02:00:00 -0.5 8 Sudoeste 10 Sudoeste 0 -- -- 86
2019-02-09 01:00:00 -0.1 8 Sudoeste 12 Sudoeste 0 -- -- 87
2019-02-09 00:00:00 0.2 3 Sur 8 Oeste 0 -- -- 86
2019-02-08 23:00:00 1.6 0 Calma 8 Oeste 0 -- -- 84
2019-02-08 22:00:00 2.7 5 Sudoeste 13 Oeste 0 -- -- 83
2019-02-08 21:00:00 4.6 9 Oeste 13 Este 0 -- -- 79
2019-02-08 20:00:00 6.5 6 Nordeste 22 Oeste 0 -- -- 68
2019-02-08 19:00:00 8 12 Oeste 32 Sudoeste 0 -- -- 61
2019-02-08 18:00:00 10.2 24 Oeste 46 Sudoeste 0 -- -- 43
2019-02-08 17:00:00 12.2 28 Oeste 45 Sudoeste 0 -- -- 45
2019-02-08 16:00:00 13 25 Oeste 42 Sudoeste 0 -- -- 43
2019-02-08 15:00:00 13.1 24 Oeste 40 Sudoeste 0 -- -- 43
2019-02-08 14:00:00 12.8 25 Sudoeste 39 Oeste 0 -- -- 43
2019-02-08 13:00:00 12 17 Oeste 32 Sudoeste 0 -- -- 41
2019-02-08 12:00:00 9.4 8 Norte 17 Nordeste 0 -- -- 55
2019-02-08 11:00:00 5 3 Este 9 Sudoeste 0 -- -- 61
2019-02-08 10:00:00 1.6 6 Sudoeste 13 Sudoeste 0 -- -- 66
2019-02-08 09:00:00 -4.1 5 Sudoeste 9 Sudoeste 0 -- -- 84
2019-02-08 08:00:00 -4.1 4 Sudeste 14 Oeste 0 -- -- 82
2019-02-08 07:00:00 -2.1 12 Sudoeste 17 Sudoeste 0 -- -- 83
2019-02-08 06:00:00 -3.6 2 Nordeste 8 Este 0 -- -- 90
2019-02-08 05:00:00 -2.2 8 Sudoeste 17 Sudoeste 0 -- -- 87
2019-02-08 04:00:00 -1.6 11 Sudoeste 17 Sudoeste 0 -- -- 89
2019-02-08 03:00:00 -1.1 11 Sudoeste 18 Sudoeste 0 -- -- 86
2019-02-08 02:00:00 -1.3 11 Sudoeste 15 Sudoeste 0 -- -- 91
2019-02-08 01:00:00 -0.4 4 Sudoeste 13 Sudoeste 0 -- -- 85
2019-02-08 00:00:00 0.8 10 Sudoeste 15 Oeste 0 -- -- 82
2019-02-07 23:00:00 1.1 8 Sudoeste 15 Oeste 0 -- -- 86
2019-02-07 22:00:00 1.8 3 Sur 9 Sudoeste 0 -- -- 83
2019-02-07 21:00:00 3.3 3 Sudeste 8 Este 0 -- -- 76
2019-02-07 20:00:00 5.8 5 Oeste 8 Nordeste 0 -- -- 73
2019-02-07 19:00:00 9.1 4 Norte 11 Norte 0 -- -- 64
2019-02-07 18:00:00 12.1 7 Norte 21 Norte 0 -- -- 52
2019-02-07 17:00:00 12.8 6 Norte 17 Norte 0 -- -- 48
2019-02-07 16:00:00 12.7 9 Norte 22 Norte 0 -- -- 49
2019-02-07 15:00:00 12.8 4 Norte 10 Norte 0 -- -- 40
2019-02-07 14:00:00 11.4 6 Norte 18 Norte 0 -- -- 43
2019-02-07 13:00:00 10.1 10 Norte 18 Norte 0 -- -- 52
2019-02-07 12:00:00 7.9 6 Nordeste 11 Oeste 0 -- -- 45
2019-02-07 11:00:00 3.1 8 Oeste 11 Sudoeste 0 -- -- 75
2019-02-07 10:00:00 -1 3 Sudoeste 5 Oeste 0 -- -- 85
2019-02-07 09:00:00 -2.2 0 Calma 12 Sudoeste 0 -- -- 89
2019-02-07 08:00:00 -2.7 10 Sudoeste 14 Sudoeste 0 -- -- 93
2019-02-07 07:00:00 -3.4 3 Sudeste 6 Este 0 -- -- 87
2019-02-07 06:00:00 -1.9 3 Sudoeste 14 Sudoeste 0 -- -- 89
2019-02-07 05:00:00 -1.4 8 Sudoeste 12 Sudoeste 0 -- -- 90
2019-02-07 04:00:00 -1 5 Sudoeste 11 Sudoeste 0 -- -- 89
2019-02-07 03:00:00 -0.8 3 Sur 8 Oeste 0 -- -- 86
2019-02-07 02:00:00 0.3 8 Oeste 13 Sudoeste 0 -- -- 86
2019-02-07 01:00:00 0.1 3 Sudoeste 9 Sudoeste 0 -- -- 85
2019-02-07 00:00:00 1.1 6 Sudoeste 14 Sudoeste 0 -- -- 84
2019-02-06 23:00:00 1.2 7 Sudoeste 9 Sudoeste 0 -- -- 83
2019-02-06 22:00:00 2.6 4 Oeste 10 Oeste 0 -- -- 78
2019-02-06 21:00:00 4.3 4 Sudoeste 9 Sudoeste 0 -- -- 73
2019-02-06 20:00:00 7.1 4 Sudoeste 10 Oeste 0 -- -- 64
2019-02-06 19:00:00 10.2 6 Oeste 15 Oeste 0 -- -- 56
2019-02-06 18:00:00 12.5 7 Oeste 22 Oeste 0 -- -- 48
2019-02-06 17:00:00 14.1 11 Oeste 22 Oeste 0 -- -- 44
2019-02-06 16:00:00 14.8 14 Oeste 22 Sudoeste 0 -- -- 41
2019-02-06 15:00:00 15.1 15 Oeste 31 Sudoeste 0 -- -- 39
2019-02-06 14:00:00 14.2 16 Oeste 29 Sudoeste 0 -- -- 47
2019-02-06 13:00:00 12.7 10 Norte 18 Norte 0 -- -- 51
2019-02-06 12:00:00 10.6 8 Norte 14 Norte 0 -- -- 58
2019-02-06 11:00:00 7 2 Sur 13 Sudoeste 0 -- -- 69
2019-02-06 10:00:00 2.5 9 Sudoeste 14 Oeste 0 -- -- 80
2019-02-06 09:00:00 -0.6 9 Sudoeste 14 Sudoeste 0 -- -- 88
2019-02-06 08:00:00 -0.9 10 Sudoeste 15 Sudoeste 0 -- -- 89
2019-02-06 07:00:00 -0.5 10 Sudoeste 15 Sudoeste 0 -- -- 88
2019-02-06 06:00:00 -0.5 10 Sudoeste 15 Sudoeste 0 -- -- 90
2019-02-06 05:00:00 -0.3 10 Sudoeste 17 Sudoeste 0 -- -- 89
2019-02-06 04:00:00 -0.5 9 Sudoeste 15 Sudoeste 0 -- -- 90
2019-02-06 03:00:00 -0.4 9 Oeste 15 Sudoeste 0 -- -- 90
2019-02-06 02:00:00 0.7 8 Sudoeste 16 Sudoeste 0 -- -- 87
2019-02-06 01:00:00 1.1 9 Sudoeste 14 Sudoeste 0 -- -- 86
2019-02-06 00:00:00 1.8 10 Sudoeste 15 Sudoeste 0 -- -- 86
2019-02-05 23:00:00 2.6 11 Sudoeste 15 Sudoeste 0 -- -- 84
2019-02-05 22:00:00 2.8 9 Sudoeste 14 Sudoeste 0 -- -- 82
2019-02-05 21:00:00 4.3 7 Oeste 10 Oeste 0 -- -- 76
2019-02-05 20:00:00 7.1 2 Sudoeste 8 Nordeste 0 -- -- 65
2019-02-05 19:00:00 10.4 5 Este 13 Norte 0 -- -- 57
2019-02-05 18:00:00 13.5 8 Norte 17 Norte 0 -- -- 48
2019-02-05 17:00:00 14.3 6 Norte 14 Norte 0 -- -- 47
2019-02-05 16:00:00 14.6 6 Noroeste 14 Noroeste 0 -- -- 44
2019-02-05 15:00:00 14.3 7 Norte 19 Norte 0 -- -- 46
2019-02-05 14:00:00 13.6 9 Norte 16 Norte 0 -- -- 49
2019-02-05 13:00:00 12.6 4 Nordeste 7 Nordeste 0 -- -- 53
2019-02-05 12:00:00 9.9 2 Noroeste 7 Sudoeste 0 -- -- 64
2019-02-05 11:00:00 6 5 Sudoeste 11 Sudoeste 0 -- -- 74
2019-02-05 10:00:00 1.3 9 Sudoeste 13 Oeste 0 -- -- 87
2019-02-05 09:00:00 -1.7 7 Sudoeste 15 Sudoeste 0 -- -- 91
2019-02-05 08:00:00 -2.1 9 Sudoeste 13 Sudoeste 0 -- -- 90
2019-02-05 07:00:00 -2.1 6 Sudoeste 13 Sudoeste 0 -- -- 90
2019-02-05 06:00:00 -1.7 7 Sudoeste 13 Sudoeste 0 -- -- 88
2019-02-05 05:00:00 -1.6 7 Sudoeste 11 Oeste 0 -- -- 88
2019-02-05 04:00:00 -1.5 6 Sudoeste 11 Sudoeste 0 -- -- 86
2019-02-05 03:00:00 -1.2 8 Sudoeste 13 Sudoeste 0 -- -- 83
2019-02-05 02:00:00 -1.3 10 Sudoeste 14 Sudoeste 0 -- -- 82
2019-02-05 01:00:00 -0.7 5 Oeste 9 Oeste 0 -- -- 78
2019-02-05 00:00:00 0.9 6 Sudoeste 18 Sudoeste 0 -- -- 71
2019-02-04 23:00:00 1.4 10 Sudoeste 17 Sudoeste 0 -- -- 69
2019-02-04 22:00:00 1.4 8 Oeste 11 Sudoeste 0 -- -- 67
2019-02-04 21:00:00 2.9 5 Oeste 7 Oeste 0 -- -- 61
2019-02-04 20:00:00 6.1 3 Sudeste 15 Norte 0 -- -- 48
2019-02-04 19:00:00 9 10 Norte 20 Norte 0 -- -- 38
2019-02-04 18:00:00 11.5 5 Norte 17 Nordeste 0 -- -- 31
2019-02-04 17:00:00 12.9 7 Norte 15 Norte 0 -- -- 28
2019-02-04 16:00:00 13 8 Norte 14 Norte 0 -- -- 28
2019-02-04 15:00:00 12.9 6 Noroeste 14 Norte 0 -- -- 27
2019-02-04 14:00:00 12 5 Norte 12 Nordeste 0 -- -- 26
2019-02-04 13:00:00 9.6 5 Nordeste 9 Este 0 -- -- 32
2019-02-04 12:00:00 5.9 3 Nordeste 8 Nordeste 0 -- -- 41
2019-02-04 11:00:00 1.9 5 Sudoeste 15 Oeste 0 -- -- 54
2019-02-04 10:00:00 -2.3 8 Sudoeste 12 Sudoeste 0 -- -- 75
2019-02-04 09:00:00 -6 5 Sudoeste 9 Sudoeste 0 -- -- 85
2019-02-04 08:00:00 -6.9 0 Calma 4 Sudoeste 0 -- -- 85
2019-02-04 07:00:00 -5.8 0 Calma 14 Sudoeste 0 -- -- 81
2019-02-04 06:00:00 -5.3 12 Sudoeste 20 Sudoeste 0 -- -- 82
2019-02-04 05:00:00 -5 14 Sudoeste 22 Sudoeste 0 -- -- 81
2019-02-04 04:00:00 -4.7 13 Sudoeste 18 Oeste 0 -- -- 79
2019-02-04 03:00:00 -5.2 9 Sudoeste 13 Sudoeste 0 -- -- 83
2019-02-04 02:00:00 -5.3 6 Sudoeste 10 Sudoeste 0 -- -- 85
2019-02-04 01:00:00 -4 6 Sur 14 Sudoeste 0 -- -- 77
2019-02-04 00:00:00 -3.6 4 Sudoeste 13 Sudoeste 0 -- -- 78
2019-02-03 23:00:00 -3.4 6 Sur 11 Sudoeste 0 -- -- 79
2019-02-03 22:00:00 -2.6 4 Oeste 6 Sudoeste 0 -- -- 79
2019-02-03 21:00:00 -2 4 Oeste 8 Este 0 -- -- 75
2019-02-03 20:00:00 1 4 Norte 9 Norte 0 -- -- 61
2019-02-03 19:00:00 2.4 7 Norte 15 Norte 0 -- -- 55
2019-02-03 18:00:00 4.8 7 Norte 18 Norte 0 -- -- 48
2019-02-03 17:00:00 5.3 8 Nordeste 19 Nordeste 0 -- -- 43
2019-02-03 16:00:00 5 7 Nordeste 19 Nordeste 0 -- -- 49
2019-02-03 15:00:00 4.8 14 Este 23 Este 0 -- -- 51
2019-02-03 14:00:00 3.7 11 Norte 19 Norte 0 -- -- 51
2019-02-03 13:00:00 3 5 Nordeste 18 Nordeste 0 -- -- 55
2019-02-03 12:00:00 1.7 4 Norte 12 Este 0 -- -- 65
2019-02-03 11:00:00 0.2 2 Oeste 5 Sudoeste 0 -- -- 78
2019-02-03 10:00:00 -3.4 2 Sur 5 Este 0 -- -- 91
2019-02-03 09:00:00 -6.6 2 Este 5 Este 0 -- -- 91
2019-02-03 08:00:00 -5.9 0 Calma 6 Este 0 -- -- 91
2019-02-03 07:00:00 -4.8 2 Noroeste 6 Este 0 -- -- 92
2019-02-03 06:00:00 -3.5 0 Calma 7 Este 0 -- -- 90
2019-02-03 05:00:00 -2.1 4 Norte 9 Norte 0 -- -- 90
2019-02-03 04:00:00 -2.4 5 Nordeste 12 Nordeste 0 -- -- 92
2019-02-03 03:00:00 -2.2 4 Nordeste 9 Norte 0 -- -- 90
2019-02-03 02:00:00 -1.9 5 Norte 13 Norte 0 -- -- 89
2019-02-03 01:00:00 -1.6 8 Norte 14 Norte 0 -- -- 87
2019-02-03 00:00:00 -1.3 5 Norte 20 Nordeste 0 -- -- 84
2019-02-02 23:00:00 -1 7 Norte 19 Norte 0 -- -- 81
2019-02-02 22:00:00 0 7 Norte 24 Norte 0 -- -- 74
2019-02-02 21:00:00 0.8 11 Norte 35 Norte 0 -- -- 69
2019-02-02 20:00:00 1.9 15 Noroeste 30 Noroeste 0.4 -- -- 62
2019-02-02 19:00:00 1.6 4 Norte 11 Norte 0 -- -- 75
2019-02-02 18:00:00 2.1 8 Nordeste 31 Nordeste 0 -- -- 70
2019-02-02 17:00:00 2.9 9 Norte 35 Norte 0.4 -- -- 65
2019-02-02 16:00:00 3.1 12 Norte 29 Norte 0 -- -- 64
2019-02-02 15:00:00 4 13 Norte 31 Noroeste 0 -- -- 60
2019-02-02 14:00:00 2.9 15 Norte 30 Norte 0 -- -- 63
2019-02-02 13:00:00 2.2 15 Noroeste 33 Noroeste 0 -- -- 69
2019-02-02 12:00:00 1.3 11 Norte 21 Noroeste 0 -- -- 72
2019-02-02 11:00:00 0.2 12 Norte 21 Norte 0 -- -- 76
2019-02-02 10:00:00 -0.3 6 Norte 17 Norte 0 -- -- 79
2019-02-02 09:00:00 -0.8 6 Norte 14 Norte 0 -- -- 80
2019-02-02 08:00:00 -1.1 8 Nordeste 22 Norte 0 -- -- 80
2019-02-02 07:00:00 -0.5 14 Norte 32 Noroeste 0 -- -- 76
2019-02-02 06:00:00 -0.3 7 Norte 22 Noroeste 0 -- -- 74
2019-02-02 05:00:00 0.2 11 Noroeste 36 Noroeste 0 -- -- 69
2019-02-02 04:00:00 0.8 10 Norte 44 Noroeste 0 -- -- 73
2019-02-02 03:00:00 1.7 13 Noroeste 40 Noroeste 0 -- -- 73
2019-02-02 02:00:00 1.9 14 Noroeste 50 Oeste 0 -- -- 74
2019-02-02 01:00:00 2.4 22 Noroeste 59 Oeste 0 -- -- 70
2019-02-02 00:00:00 2.3 25 Noroeste 49 Noroeste 0 -- -- 72
2019-02-01 23:00:00 2.1 24 Oeste 54 Noroeste 0 -- -- 72
2019-02-01 22:00:00 2.5 19 Noroeste 59 Oeste 0 -- -- 71
2019-02-01 21:00:00 2.4 15 Noroeste 44 Oeste 0 -- -- 75
2019-02-01 20:00:00 2.6 22 Noroeste 44 Noroeste 0 -- -- 76
2019-02-01 19:00:00 2.3 23 Oeste 42 Oeste 0 -- -- 74
2019-02-01 18:00:00 2.6 19 Noroeste 47 Oeste 0 -- -- 67
2019-02-01 17:00:00 4.1 26 Oeste 61 Oeste 0 -- -- 63
2019-02-01 16:00:00 4.4 30 Oeste 58 Oeste 0 -- -- 67
2019-02-01 15:00:00 2.7 13 Sudoeste 41 Sudoeste 1.2 -- -- 89
2019-02-01 14:00:00 2.4 21 Sudoeste 52 Sudoeste 1 -- -- 91
2019-02-01 13:00:00 3.6 35 Sudoeste 58 Sudoeste 0.6 -- -- 89
2019-02-01 12:00:00 3.3 23 Sudoeste 48 Sudoeste 0.2 -- -- 90
2019-02-01 11:00:00 3.6 23 Sudoeste 42 Sudoeste 0 -- -- 88
2019-02-01 10:00:00 3 26 Sudoeste 40 Sudoeste 0 -- -- 86
2019-02-01 09:00:00 2.8 19 Sudoeste 35 Sudoeste 0 -- -- 79
2019-02-01 08:00:00 2.8 9 Sudoeste 31 Oeste 0 -- -- 82
2019-02-01 07:00:00 3.3 16 Sudoeste 30 Sudoeste 0 -- -- 87
2019-02-01 06:00:00 4.1 11 Sudoeste 32 Sudoeste 0 -- -- 84
2019-02-01 05:00:00 4.8 19 Sudoeste 40 Sudoeste 0.2 -- -- 85
2019-02-01 04:00:00 4.9 23 Oeste 41 Sudoeste 0 -- -- 89
2019-02-01 03:00:00 5.4 3 Sur 30 Sudoeste 0.4 -- -- 85
2019-02-01 02:00:00 6.7 17 Sudoeste 33 Oeste 2.4 -- -- 88
2019-02-01 01:00:00 7.9 4 Oeste 37 Sudoeste 3.6 -- -- 87
2019-02-01 00:00:00 8.1 24 Sudoeste 59 Sudoeste 1.8 -- -- 90
2019-01-31 23:00:00 8.1 31 Sudoeste 53 Sudoeste 1.4 -- -- 92
2019-01-31 22:00:00 7.9 26 Sudoeste 45 Sur 1.2 -- -- 91
2019-01-31 21:00:00 7.8 23 Sudoeste 41 Sur 0.2 -- -- 90
2019-01-31 20:00:00 7.5 21 Sur 42 Sudoeste 0.4 -- -- 89
2019-01-31 19:00:00 7.6 22 Sur 50 Sur 0 -- -- 84
2019-01-31 18:00:00 8.2 24 Sudoeste 45 Sudoeste 0.2 -- -- 88
2019-01-31 17:00:00 9 24 Sudoeste 60 Sudoeste 0 -- -- 84
2019-01-31 16:00:00 9.4 24 Sudoeste 46 Sudoeste 0.2 -- -- 89
2019-01-31 15:00:00 9 29 Sudoeste 50 Sudoeste 0.6 -- -- 88
2019-01-31 14:00:00 9.2 31 Sudoeste 50 Sudoeste 0 -- -- 88
2019-01-31 13:00:00 10.4 25 Oeste 47 Oeste 0 -- -- 83
2019-01-31 12:00:00 9.8 24 Oeste 42 Oeste 0 -- -- 81
2019-01-31 11:00:00 8.7 18 Oeste 32 Oeste 0 -- -- 84
2019-01-31 10:00:00 7.6 16 Oeste 29 Oeste 0 -- -- 84
2019-01-31 09:00:00 7.7 10 Oeste 27 Oeste 0 -- -- 82
2019-01-31 08:00:00 7.5 19 Oeste 44 Sudoeste 0 -- -- 83
2019-01-31 07:00:00 8 18 Sudoeste 39 Sudoeste 0 -- -- 74
2019-01-31 06:00:00 8.3 23 Oeste 41 Oeste 0 -- -- 74
2019-01-31 05:00:00 8.8 23 Sudoeste 41 Sudoeste 0.2 -- -- 81
2019-01-31 04:00:00 8.1 12 Oeste 20 Sudoeste 0 -- -- 88
2019-01-31 03:00:00 8.3 6 Oeste 21 Sur 0 -- -- 83
2019-01-31 02:00:00 8.2 11 Sur 24 Sur 0 -- -- 80
2019-01-31 01:00:00 7 4 Sur 16 Oeste 0.2 -- -- 91
2019-01-31 00:00:00 6.6 11 Oeste 21 Oeste 0 -- -- 91
2019-01-30 23:00:00 6.1 14 Oeste 24 Oeste 0 -- -- 92
2019-01-30 22:00:00 6.1 12 Oeste 28 Sudoeste 0.2 -- -- 91
2019-01-30 21:00:00 5.7 12 Oeste 27 Sudoeste 0 -- -- 89
2019-01-30 20:00:00 5.4 15 Sudoeste 36 Oeste 0.2 -- -- 88
2019-01-30 19:00:00 4.8 22 Oeste 36 Oeste 0 -- -- 87
2019-01-30 18:00:00 3.8 18 Oeste 30 Oeste 0.6 -- -- 88
2019-01-30 17:00:00 3.4 17 Oeste 30 Oeste 0.2 -- -- 88
2019-01-30 16:00:00 4.4 17 Oeste 28 Oeste 0 -- -- 80
2019-01-30 15:00:00 6.1 11 Sudoeste 21 Sudoeste 0 -- -- 57
2019-01-30 14:00:00 6.2 4 Sudeste 16 Norte 0 -- -- 55
2019-01-30 13:00:00 5.5 9 Norte 25 Norte 0 -- -- 57
2019-01-30 12:00:00 4.7 14 Norte 25 Noroeste 0 -- -- 54
2019-01-30 11:00:00 3.2 10 Norte 21 Norte 0 -- -- 72
2019-01-30 10:00:00 1.6 7 Este 12 Este 0 -- -- 83
2019-01-30 09:00:00 0.2 5 Este 10 Este 0 -- -- 89
2019-01-30 08:00:00 0.2 4 Este 6 Este 0 -- -- 87
2019-01-30 07:00:00 0.9 0 Calma 8 Este 0 -- -- 86
2019-01-30 06:00:00 1.8 7 Este 12 Este 0 -- -- 86
2019-01-30 05:00:00 2.2 0 Calma 8 Este 0 -- -- 88
2019-01-30 04:00:00 2.8 4 Nordeste 9 Este 0 -- -- 88
2019-01-30 03:00:00 2.7 4 Este 14 Este 0 -- -- 86
2019-01-30 02:00:00 3.1 10 Este 18 Este 0 -- -- 86
2019-01-30 01:00:00 3.4 8 Este 19 Este 0 -- -- 87
2019-01-30 00:00:00 3.7 5 Este 10 Noroeste 0 -- -- 84
2019-01-29 23:00:00 4.6 10 Nordeste 22 Nordeste 0 -- -- 82
2019-01-29 22:00:00 5.1 7 Norte 25 Noroeste 0 -- -- 82
2019-01-29 21:00:00 6.1 11 Norte 25 Norte 0 -- -- 81
2019-01-29 20:00:00 7 13 Noroeste 41 Noroeste 0 -- -- 79
2019-01-29 19:00:00 7.2 17 Noroeste 34 Norte 1 -- -- 80
2019-01-29 18:00:00 7.9 19 Noroeste 37 Noroeste 0 -- -- 75
2019-01-29 17:00:00 8.3 13 Oeste 30 Noroeste 0 -- -- 72
2019-01-29 16:00:00 7.9 11 Oeste 37 Oeste 0 -- -- 71
2019-01-29 15:00:00 8.3 13 Noroeste 47 Oeste 0 -- -- 67
2019-01-29 14:00:00 8.8 15 Noroeste 41 Noroeste 0 -- -- 65
2019-01-29 13:00:00 8.3 15 Noroeste 42 Oeste 0 -- -- 65
2019-01-29 12:00:00 7.3 17 Oeste 36 Noroeste 0 -- -- 69
2019-01-29 11:00:00 6.4 10 Oeste 32 Oeste 0 -- -- 74
2019-01-29 10:00:00 4.7 9 Este 15 Este 0 -- -- 83
2019-01-29 09:00:00 2.8 6 Nordeste 10 Nordeste 0 -- -- 86
2019-01-29 08:00:00 2.3 6 Nordeste 12 Oeste 0 -- -- 87
2019-01-29 07:00:00 1.8 0 Calma 10 Noroeste 0 -- -- 86
2019-01-29 06:00:00 0.6 4 Oeste 8 Oeste 0 -- -- 89
2019-01-29 05:00:00 -0.6 3 Este 6 Sudeste 0 -- -- 88
2019-01-29 04:00:00 -0.5 4 Sudoeste 8 Sudoeste 0 -- -- 90
2019-01-29 03:00:00 0.5 4 Sudoeste 9 Este 0 -- -- 86
2019-01-29 02:00:00 1.5 4 Este 12 Este 0 -- -- 88
2019-01-29 01:00:00 2.8 8 Este 14 Norte 0 -- -- 85
2019-01-29 00:00:00 4.2 6 Nordeste 21 Este 0 -- -- 80
2019-01-28 23:00:00 4.5 8 Este 21 Norte 0 -- -- 83
2019-01-28 22:00:00 5.6 8 Norte 34 Norte 0 -- -- 81
2019-01-28 21:00:00 6.2 13 Norte 30 Norte 0 -- -- 78
2019-01-28 20:00:00 6.4 14 Norte 29 Norte 0 -- -- 78
2019-01-28 19:00:00 7 13 Norte 38 Noroeste 0 -- -- 74
2019-01-28 18:00:00 7.8 17 Norte 48 Noroeste 0 -- -- 72
2019-01-28 17:00:00 7.8 21 Noroeste 40 Norte 0 -- -- 72
2019-01-28 16:00:00 8.6 20 Noroeste 37 Noroeste 0 -- -- 69
2019-01-28 15:00:00 9.3 19 Noroeste 35 Noroeste 0 -- -- 65
2019-01-28 14:00:00 7.8 16 Noroeste 33 Noroeste 0 -- -- 69
2019-01-28 13:00:00 7.2 15 Norte 35 Norte 0 -- -- 73
2019-01-28 12:00:00 6 7 Norte 24 Nordeste 0 -- -- 77
2019-01-28 11:00:00 5.4 6 Norte 16 Norte 0 -- -- 80
2019-01-28 10:00:00 3.8 4 Nordeste 9 Este 0 -- -- 85
2019-01-28 09:00:00 2.5 6 Este 13 Este 0 -- -- 87
2019-01-28 08:00:00 2.2 9 Este 15 Este 0 -- -- 86
2019-01-28 07:00:00 1.8 4 Sudeste 9 Este 0 -- -- 87
2019-01-28 06:00:00 1.6 6 Este 11 Este 0 -- -- 86
2019-01-28 05:00:00 1.4 6 Nordeste 16 Este 0 -- -- 84
2019-01-28 04:00:00 0.3 11 Este 16 Este 0 -- -- 85
2019-01-28 03:00:00 0.2 5 Este 12 Nordeste 0 -- -- 82
2019-01-28 02:00:00 1.1 9 Este 14 Este 0 -- -- 80
2019-01-28 01:00:00 1 6 Este 12 Nordeste 0 -- -- 79
2019-01-28 00:00:00 2 4 Este 13 Nordeste 0 -- -- 77
2019-01-27 23:00:00 2.7 7 Nordeste 13 Nordeste 0 -- -- 77
2019-01-27 22:00:00 3.1 5 Norte 14 Norte 0 -- -- 76
2019-01-27 21:00:00 3.5 7 Norte 17 Norte 0 -- -- 74
2019-01-27 20:00:00 4.1 8 Norte 21 Norte 0 -- -- 72
2019-01-27 19:00:00 4.6 3 Norte 15 Norte 0 -- -- 68
2019-01-27 18:00:00 5.8 10 Norte 32 Noroeste 0 -- -- 61
2019-01-27 17:00:00 7.2 13 Norte 31 Norte 0 -- -- 53
2019-01-27 16:00:00 7.6 17 Norte 31 Norte 0 -- -- 52
2019-01-27 15:00:00 7.3 13 Norte 30 Norte 0 -- -- 52
2019-01-27 14:00:00 7 17 Norte 30 Norte 0 -- -- 54
2019-01-27 13:00:00 5.3 7 Norte 22 Norte 0 -- -- 67
2019-01-27 12:00:00 3.9 11 Norte 24 Noroeste 0 -- -- 73
2019-01-27 11:00:00 3.5 10 Norte 29 Noroeste 0 -- -- 76
2019-01-27 10:00:00 3.3 13 Norte 32 Norte 0 -- -- 84
2019-01-27 09:00:00 2.8 7 Norte 14 Norte 0 -- -- 88
2019-01-27 08:00:00 1.3 5 Nordeste 13 Este 0 -- -- 86
2019-01-27 07:00:00 -1.8 7 Este 9 Este 0 -- -- 88
2019-01-27 06:00:00 -3.6 4 Sudoeste 7 Sudoeste 0 -- -- 87
2019-01-27 05:00:00 -3.5 3 Oeste 5 Oeste 0 -- -- 87
2019-01-27 04:00:00 -2.8 3 Este 8 Oeste 0 -- -- 83
2019-01-27 03:00:00 -1.6 7 Oeste 13 Sudoeste 0 -- -- 79
2019-01-27 02:00:00 -1 6 Sudoeste 14 Sudoeste 0 -- -- 79
2019-01-27 01:00:00 -0.8 3 Noroeste 9 Este 0 -- -- 81
2019-01-27 00:00:00 1 8 Sudoeste 16 Sudoeste 0 -- -- 72
2019-01-26 23:00:00 2.1 4 Sudoeste 17 Sudoeste 0 -- -- 68
2019-01-26 22:00:00 2.1 3 Sudoeste 13 Oeste 0 -- -- 69
2019-01-26 21:00:00 3.2 3 Sur 10 Este 0 -- -- 65
2019-01-26 20:00:00 6.2 0 Calma 9 Nordeste 0 -- -- 56
2019-01-26 19:00:00 10.4 8 Nordeste 15 Nordeste 0 -- -- 46
2019-01-26 18:00:00 13.7 6 Norte 17 Norte 0 -- -- 35
2019-01-26 17:00:00 15.5 5 Norte 17 Norte 0 -- -- 30
2019-01-26 16:00:00 15.7 8 Nordeste 17 Nordeste 0 -- -- 32
2019-01-26 15:00:00 15.2 8 Norte 20 Norte 0 -- -- 33
2019-01-26 14:00:00 13.8 6 Norte 10 Norte 0 -- -- 30
2019-01-26 13:00:00 11.5 5 Nordeste 10 Este 0 -- -- 38
2019-01-26 12:00:00 8.1 0 Calma 6 Este 0 -- -- 49
2019-01-26 11:00:00 3.1 3 Este 10 Sudoeste 0 -- -- 66
2019-01-26 10:00:00 -0.5 9 Sudoeste 16 Sudoeste 0 -- -- 71
2019-01-26 09:00:00 -3.5 9 Sudoeste 16 Sudoeste 0 -- -- 80
2019-01-26 08:00:00 -3.1 8 Sudoeste 14 Sudoeste 0 -- -- 81
2019-01-26 07:00:00 -3.4 7 Sudoeste 14 Sudoeste 0 -- -- 84
2019-01-26 06:00:00 -3.1 8 Sudoeste 17 Sudoeste 0 -- -- 86
2019-01-26 05:00:00 -2.2 9 Sudoeste 21 Oeste 0 -- -- 83
2019-01-26 04:00:00 -1.3 11 Sudoeste 26 Sudoeste 0 -- -- 82
2019-01-26 03:00:00 -1.1 13 Sudoeste 20 Oeste 0 -- -- 84
2019-01-26 02:00:00 -0.3 11 Oeste 16 Sudoeste 0 -- -- 79
2019-01-26 01:00:00 -0.3 8 Sudoeste 20 Sudoeste 0 -- -- 85
2019-01-26 00:00:00 0.5 13 Sudoeste 18 Sudoeste 0 -- -- 76
2019-01-25 23:00:00 0.9 5 Oeste 14 Sudoeste 0 -- -- 80
2019-01-25 22:00:00 1.8 7 Oeste 9 Oeste 0 -- -- 78
2019-01-25 21:00:00 3.7 0 Calma 4 Sudoeste 0 -- -- 78
2019-01-25 20:00:00 6 4 Este 15 Norte 0 -- -- 67
2019-01-25 19:00:00 9.1 9 Norte 18 Noroeste 0 -- -- 64
2019-01-25 18:00:00 12.3 9 Norte 20 Norte 0 -- -- 53
2019-01-25 17:00:00 14.3 7 Norte 18 Norte 0 -- -- 33
2019-01-25 16:00:00 14.7 7 Nordeste 17 Este 0 -- -- 39
2019-01-25 15:00:00 14 6 Norte 18 Noroeste 0 -- -- 46
2019-01-25 14:00:00 12.9 6 Norte 18 Nordeste 0 -- -- 51
2019-01-25 13:00:00 11.5 7 Norte 17 Nordeste 0 -- -- 58
2019-01-25 12:00:00 9.9 4 Nordeste 13 Sur 0 -- -- 66
2019-01-25 11:00:00 5.9 7 Sudoeste 9 Sudoeste 0 -- -- 82
2019-01-25 10:00:00 1.6 7 Oeste 10 Sudoeste 0 -- -- 93
2019-01-25 09:00:00 -0.7 4 Oeste 7 Oeste 0 -- -- 94
2019-01-25 08:00:00 -0.8 0 Calma 4 Sudoeste 0 -- -- 91
2019-01-25 07:00:00 1 0 Calma -- -- 0 -- -- 90
2019-01-25 06:00:00 2.7 0 Calma -- -- 0 -- -- 87
2019-01-25 05:00:00 4.3 0 Calma -- -- 0 -- -- 88
2019-01-25 04:00:00 5.1 0 Calma 5 Sudoeste 0 -- -- 86
2019-01-25 03:00:00 5.2 3 Sudoeste 7 Oeste 0 -- -- 84
2019-01-25 02:00:00 5.4 0 Calma 6 Sudoeste 0 -- -- 83
2019-01-25 01:00:00 5.5 0 Calma 6 Sur 0 -- -- 82
2019-01-25 00:00:00 6.2 4 Oeste 8 Sudoeste 0 -- -- 79
2019-01-24 23:00:00 7.6 4 Nordeste 14 Norte 0 -- -- 72
2019-01-24 22:00:00 9 5 Noroeste 10 Norte 0 -- -- 69
2019-01-24 21:00:00 9.6 4 Norte 18 Norte 0 -- -- 66
2019-01-24 20:00:00 10.4 8 Nordeste 15 Nordeste 0 -- -- 65
2019-01-24 19:00:00 10.8 4 Norte 22 Norte 0 -- -- 64
2019-01-24 18:00:00 12.1 10 Norte 24 Noroeste 0 -- -- 66
2019-01-24 17:00:00 12.2 13 Norte 32 Norte 0 -- -- 66
2019-01-24 16:00:00 11.9 17 Norte 39 Norte 0 -- -- 65
2019-01-24 15:00:00 12.3 17 Norte 38 Norte 0 -- -- 63
2019-01-24 14:00:00 11.5 18 Norte 36 Norte 0 -- -- 67
2019-01-24 13:00:00 10.1 6 Nordeste 22 Nordeste 0 -- -- 78
2019-01-24 12:00:00 7.7 12 Norte 24 Norte 0 -- -- 87
2019-01-24 11:00:00 6.6 8 Norte 30 Noroeste 0 -- -- 92
2019-01-24 10:00:00 6.3 13 Norte 27 Norte 0 -- -- 92
2019-01-24 09:00:00 6.1 11 Norte 32 Norte 0 -- -- 93
2019-01-24 08:00:00 5.9 8 Norte 34 Noroeste 0 -- -- 92
2019-01-24 07:00:00 6.1 13 Norte 30 Noroeste 0 -- -- 91
2019-01-24 06:00:00 6.1 11 Norte 28 Norte 0 -- -- 89
2019-01-24 05:00:00 6.2 18 Norte 33 Norte 0 -- -- 89
2019-01-24 04:00:00 6.2 13 Norte 28 Norte 0 -- -- 90
2019-01-24 03:00:00 6.3 10 Norte 30 Noroeste 0 -- -- 89
2019-01-24 02:00:00 6.4 13 Norte 36 Noroeste 0 -- -- 88
2019-01-24 01:00:00 6.7 17 Norte 41 Noroeste 0 -- -- 86
2019-01-24 00:00:00 7 21 Norte 46 Noroeste 0 -- -- 86